createdAt,value
2023-03-16T00:00:40.632Z,3.30
2023-03-16T00:03:23.745Z,3.31
2023-03-16T00:05:56.917Z,3.30
2023-03-16T00:08:29.169Z,3.30
2023-03-16T00:11:02.832Z,3.32
2023-03-16T00:13:35.146Z,3.34
2023-03-16T00:16:07.895Z,3.34
2023-03-16T00:18:42.079Z,3.35
2023-03-16T00:21:16.223Z,3.34
2023-03-16T00:23:48.500Z,3.30
2023-03-16T00:26:21.022Z,3.27
2023-03-16T00:28:54.420Z,3.27
2023-03-16T00:31:26.753Z,3.24
2023-03-16T00:33:59.102Z,3.19
2023-03-16T00:36:34.028Z,3.18
2023-03-16T00:39:07.046Z,3.16
2023-03-16T00:41:39.693Z,3.13
2023-03-16T00:44:12.045Z,3.11
2023-03-16T00:46:44.207Z,3.10
2023-03-16T00:49:16.493Z,3.12
2023-03-16T00:51:48.955Z,3.16
2023-03-16T00:54:22.320Z,3.15
2023-03-16T00:56:55.010Z,3.15
2023-03-16T00:59:27.487Z,3.18
2023-03-16T01:01:59.810Z,3.18
2023-03-16T01:04:32.614Z,3.18
2023-03-16T01:07:05.742Z,3.20
2023-03-16T01:09:38.084Z,3.20
2023-03-16T01:12:13.410Z,3.21
2023-03-16T01:14:46.040Z,3.20
2023-03-16T01:17:19.596Z,3.14
2023-03-16T01:19:52.508Z,3.06
2023-03-16T01:22:25.998Z,2.99
2023-03-16T01:25:00.099Z,2.91
2023-03-16T01:27:33.517Z,2.88
2023-03-16T01:30:06.782Z,2.87
2023-03-16T01:32:40.043Z,2.89
2023-03-16T01:35:13.976Z,2.89
2023-03-16T01:37:46.383Z,2.90
2023-03-16T01:40:26.489Z,2.92
2023-03-16T01:43:04.608Z,2.92
2023-03-16T01:46:18.205Z,2.92
2023-03-16T01:49:00.833Z,2.91
2023-03-16T01:51:43.089Z,2.86
2023-03-16T01:54:23.144Z,2.80
2023-03-16T01:57:02.543Z,2.76
2023-03-16T01:59:38.643Z,2.77
2023-03-16T02:02:13.485Z,2.76
2023-03-16T02:04:52.438Z,2.75
2023-03-16T02:07:28.927Z,2.74
2023-03-16T02:10:04.950Z,2.75
2023-03-16T02:12:37.906Z,2.76
2023-03-16T02:15:14.034Z,2.76
2023-03-16T02:17:48.455Z,2.77
2023-03-16T02:20:33.522Z,2.77
2023-03-16T02:23:07.449Z,2.77
2023-03-16T02:25:46.174Z,2.74
2023-03-16T02:28:26.350Z,2.70
2023-03-16T02:30:59.166Z,2.63
2023-03-16T02:33:33.926Z,2.63
2023-03-16T02:36:07.642Z,2.66
2023-03-16T02:38:40.009Z,2.62
2023-03-16T02:41:16.180Z,2.60
2023-03-16T02:43:54.920Z,2.61
2023-03-16T02:46:36.004Z,2.61
2023-03-16T02:49:17.537Z,2.63
2023-03-16T02:51:50.600Z,2.66
2023-03-16T02:54:23.374Z,2.63
2023-03-16T02:56:57.190Z,2.62
2023-03-16T02:59:30.258Z,2.58
2023-03-16T03:02:02.813Z,2.59
2023-03-16T03:04:35.188Z,2.58
2023-03-16T03:07:07.634Z,2.57
2023-03-16T03:09:53.791Z,2.53
2023-03-16T03:12:26.272Z,2.53
2023-03-16T03:14:58.968Z,2.49
2023-03-16T03:17:33.334Z,2.45
2023-03-16T03:20:13.910Z,2.43
2023-03-16T03:22:47.820Z,2.43
2023-03-16T03:25:21.972Z,2.42
2023-03-16T03:27:55.836Z,2.41
2023-03-16T03:30:29.045Z,2.41
2023-03-16T03:33:02.039Z,2.40
2023-03-16T03:35:35.012Z,2.41
2023-03-16T03:38:08.204Z,2.41
2023-03-16T03:40:41.448Z,2.40
2023-03-16T03:43:14.110Z,2.39
2023-03-16T03:45:47.579Z,2.39
2023-03-16T03:48:20.501Z,2.41
2023-03-16T03:50:52.944Z,2.39
2023-03-16T03:53:47.032Z,2.39
2023-03-16T03:56:44.112Z,2.36
2023-03-16T03:59:18.846Z,2.34
2023-03-16T04:02:03.480Z,2.35
2023-03-16T04:04:56.065Z,2.33
2023-03-16T04:07:28.409Z,2.31
2023-03-16T04:10:02.507Z,2.31
2023-03-16T04:12:39.908Z,2.30
2023-03-16T04:15:15.086Z,2.28
2023-03-16T04:18:10.470Z,2.25
2023-03-16T04:20:43.181Z,2.22
2023-03-16T04:23:16.846Z,2.21
2023-03-16T04:25:49.942Z,2.22
2023-03-16T04:28:23.423Z,2.21
2023-03-16T04:30:57.423Z,2.20
2023-03-16T04:33:35.353Z,2.20
2023-03-16T04:36:09.267Z,2.19
2023-03-16T04:38:42.814Z,2.18
2023-03-16T04:41:15.407Z,2.15
2023-03-16T04:43:54.356Z,2.15
2023-03-16T04:46:29.641Z,2.14
2023-03-16T04:49:03.177Z,2.15
2023-03-16T04:51:35.987Z,2.17
2023-03-16T04:54:11.387Z,2.17
2023-03-16T04:56:46.425Z,2.16
2023-03-16T04:59:30.919Z,2.13
2023-03-16T05:02:08.327Z,2.12
2023-03-16T05:04:42.602Z,2.13
2023-03-16T05:07:16.712Z,2.15
2023-03-16T05:09:53.330Z,2.15
2023-03-16T05:12:25.753Z,2.16
2023-03-16T05:15:01.802Z,2.15
2023-03-16T05:17:46.768Z,2.14
2023-03-16T05:20:21.981Z,2.12
2023-03-16T05:22:56.627Z,2.10
2023-03-16T05:25:32.171Z,2.10
2023-03-16T05:28:07.882Z,2.10
2023-03-16T05:30:46.413Z,2.11
2023-03-16T05:33:22.483Z,2.10
2023-03-16T05:35:58.694Z,2.11
2023-03-16T05:38:32.018Z,2.13
2023-03-16T05:41:06.066Z,2.14
2023-03-16T05:43:53.379Z,2.18
2023-03-16T05:46:26.767Z,2.20
2023-03-16T05:48:59.493Z,2.24
2023-03-16T05:51:32.128Z,2.29
2023-03-16T05:54:05.044Z,2.32
2023-03-16T05:56:41.387Z,2.36
2023-03-16T05:59:14.594Z,2.41
2023-03-16T06:01:47.118Z,2.47
2023-03-16T06:04:19.793Z,2.55
2023-03-16T06:06:52.290Z,2.61
2023-03-16T06:09:27.049Z,2.68
2023-03-16T06:11:59.495Z,2.75
2023-03-16T06:14:31.990Z,2.81
2023-03-16T06:17:05.388Z,2.87
2023-03-16T06:19:39.971Z,2.95
2023-03-16T06:22:13.457Z,3.06
2023-03-16T06:24:45.902Z,3.15
2023-03-16T06:27:20.457Z,3.22
2023-03-16T06:30:08.812Z,3.30
2023-03-16T06:32:43.208Z,3.36
2023-03-16T06:35:16.127Z,3.42
2023-03-16T06:37:53.626Z,3.51
2023-03-16T06:40:35.609Z,3.61
2023-03-16T06:43:08.012Z,3.71
2023-03-16T06:45:40.588Z,3.79
2023-03-16T06:48:13.301Z,3.83
2023-03-16T06:50:47.680Z,3.88
2023-03-16T06:53:24.636Z,3.91
2023-03-16T06:55:57.534Z,3.90
2023-03-16T06:58:31.573Z,3.95
2023-03-16T07:01:05.878Z,4.00
2023-03-16T07:03:38.143Z,4.06
2023-03-16T07:06:18.211Z,4.12
2023-03-16T07:08:50.800Z,4.22
2023-03-16T07:11:23.806Z,4.31
2023-03-16T07:13:56.392Z,4.35
2023-03-16T07:16:29.187Z,4.38
2023-03-16T07:19:03.687Z,4.40
2023-03-16T07:21:40.146Z,4.44
2023-03-16T07:24:15.362Z,4.51
2023-03-16T07:26:47.692Z,4.56
2023-03-16T07:29:27.781Z,4.61
2023-03-16T07:32:00.184Z,4.62
2023-03-16T07:34:38.337Z,4.64
2023-03-16T07:37:11.053Z,4.68
2023-03-16T07:39:44.363Z,4.67
2023-03-16T07:42:22.802Z,4.69
2023-03-16T07:45:05.249Z,4.76
2023-03-16T07:47:37.846Z,4.85
2023-03-16T07:50:23.395Z,4.91
2023-03-16T07:52:57.582Z,5.00
2023-03-16T07:55:30.654Z,5.07
2023-03-16T07:58:05.148Z,5.09
2023-03-16T08:00:39.732Z,5.11
2023-03-16T08:03:12.339Z,5.12
2023-03-16T08:05:44.922Z,5.14
2023-03-16T08:08:20.381Z,5.21
2023-03-16T08:10:56.189Z,5.28
2023-03-16T08:13:32.032Z,5.33
2023-03-16T08:16:05.647Z,5.41
2023-03-16T08:18:42.697Z,5.56
2023-03-16T08:21:15.867Z,5.65
2023-03-16T08:23:50.535Z,5.73
2023-03-16T08:26:24.496Z,5.78
2023-03-16T08:29:03.283Z,5.83
2023-03-16T08:31:37.371Z,5.84
2023-03-16T08:34:18.038Z,5.83
2023-03-16T08:36:50.464Z,5.83
2023-03-16T08:39:23.194Z,5.82
2023-03-16T08:41:56.771Z,5.78
2023-03-16T08:44:40.144Z,5.79
2023-03-16T08:47:14.428Z,5.88
2023-03-16T08:49:49.296Z,6.02
2023-03-16T08:52:22.953Z,6.16
2023-03-16T08:55:03.309Z,6.28
2023-03-16T08:57:37.693Z,6.40
2023-03-16T09:00:14.986Z,6.51
2023-03-16T09:02:48.094Z,6.64
2023-03-16T09:05:20.589Z,6.72
2023-03-16T09:07:53.718Z,6.74
2023-03-16T09:10:27.851Z,6.73
2023-03-16T09:13:00.381Z,6.66
2023-03-16T09:15:32.642Z,6.65
2023-03-16T09:18:05.777Z,6.72
2023-03-16T09:20:38.462Z,6.77
2023-03-16T09:23:11.766Z,6.74
2023-03-16T09:25:44.318Z,6.73
2023-03-16T09:28:18.749Z,6.72
2023-03-16T09:30:52.130Z,6.70
2023-03-16T09:33:25.603Z,6.72
2023-03-16T09:35:59.313Z,6.72
2023-03-16T09:38:32.319Z,6.77
2023-03-16T09:41:08.548Z,6.83
2023-03-16T09:43:53.152Z,6.90
2023-03-16T09:46:34.935Z,7.09
2023-03-16T09:49:08.035Z,7.25
2023-03-16T09:51:49.853Z,7.37
2023-03-16T09:54:30.212Z,7.49
2023-03-16T09:57:03.063Z,7.62
2023-03-16T09:59:35.552Z,7.74
2023-03-16T10:02:32.230Z,7.89
2023-03-16T10:05:10.780Z,8.05
2023-03-16T10:07:54.658Z,8.04
2023-03-16T10:10:47.085Z,8.03
2023-03-16T10:13:33.186Z,7.94
2023-03-16T10:16:10.882Z,7.86
2023-03-16T10:18:46.690Z,7.82
2023-03-16T10:21:20.714Z,7.77
2023-03-16T10:23:55.489Z,7.68
2023-03-16T10:26:35.231Z,7.58
2023-03-16T10:29:12.431Z,7.43
2023-03-16T10:31:45.479Z,7.30
2023-03-16T10:34:17.933Z,7.21
2023-03-16T10:36:51.412Z,7.24
2023-03-16T10:39:23.840Z,7.40
2023-03-16T10:42:00.531Z,7.47
2023-03-16T10:44:33.518Z,7.45
2023-03-16T10:47:08.463Z,7.41
2023-03-16T10:49:47.265Z,7.34
2023-03-16T10:52:24.960Z,7.31
2023-03-16T10:55:01.331Z,7.25
2023-03-16T10:57:36.283Z,7.15
2023-03-16T11:00:20.931Z,7.07
2023-03-16T11:02:55.486Z,6.95
2023-03-16T11:05:33.908Z,6.88
2023-03-16T11:08:15.064Z,6.83
2023-03-16T11:10:57.336Z,6.77
2023-03-16T11:13:36.275Z,6.68
2023-03-16T11:16:18.893Z,6.60
2023-03-16T11:18:55.584Z,6.54
2023-03-16T11:21:41.248Z,6.46
2023-03-16T11:24:24.247Z,6.41
2023-03-16T11:26:59.615Z,6.37
2023-03-16T11:29:49.617Z,6.31
2023-03-16T11:32:27.531Z,6.29
2023-03-16T11:35:00.263Z,6.31
2023-03-16T11:37:46.334Z,6.32
2023-03-16T11:40:31.369Z,6.30
2023-03-16T11:43:13.354Z,6.30
2023-03-16T11:45:54.204Z,6.28
2023-03-16T11:48:36.716Z,6.25
2023-03-16T11:51:16.859Z,6.26
2023-03-16T11:54:09.678Z,6.26
2023-03-16T11:56:47.840Z,6.26
2023-03-16T11:59:55.324Z,6.25
2023-03-16T12:02:56.163Z,6.24
2023-03-16T12:05:55.278Z,6.25
2023-03-16T12:08:54.874Z,6.26
2023-03-16T12:11:29.966Z,6.33
2023-03-16T12:14:15.854Z,6.42
2023-03-16T12:16:55.112Z,6.56
2023-03-16T12:19:38.578Z,6.69
2023-03-16T12:22:18.850Z,6.78
2023-03-16T12:24:51.624Z,6.83
2023-03-16T12:27:31.584Z,6.81
2023-03-16T12:30:20.582Z,6.77
2023-03-16T12:33:02.203Z,6.71
2023-03-16T12:35:42.569Z,6.66
2023-03-16T12:38:38.586Z,6.64
2023-03-16T12:41:23.413Z,6.58
2023-03-16T12:44:11.176Z,6.55
2023-03-16T12:46:53.566Z,6.51
2023-03-16T12:49:28.556Z,6.48
2023-03-16T12:52:03.305Z,6.49
2023-03-16T12:54:36.291Z,6.45
2023-03-16T12:57:15.873Z,6.38
2023-03-16T12:59:51.808Z,6.35
2023-03-16T13:02:31.619Z,6.30
2023-03-16T13:05:11.665Z,6.27
2023-03-16T13:07:51.898Z,6.26
2023-03-16T13:10:25.926Z,6.27
2023-03-16T13:13:08.466Z,6.26
2023-03-16T13:15:41.707Z,6.26
2023-03-16T13:18:35.334Z,6.30
2023-03-16T13:21:19.750Z,6.38
2023-03-16T13:23:59.515Z,6.48
2023-03-16T13:26:46.374Z,6.62
2023-03-16T13:29:24.473Z,6.75
2023-03-16T13:31:59.082Z,6.82
2023-03-16T13:34:34.039Z,6.93
2023-03-16T13:37:05.076Z,7.04
2023-03-16T13:39:37.312Z,7.10
2023-03-16T13:42:19.129Z,7.11
2023-03-16T13:44:53.731Z,7.11
2023-03-16T13:47:28.845Z,7.15
2023-03-16T13:50:02.385Z,7.23
2023-03-16T13:52:36.810Z,7.25
2023-03-16T13:55:18.237Z,7.22
2023-03-16T13:57:51.551Z,7.13
2023-03-16T14:00:27.868Z,7.02
2023-03-16T14:03:04.535Z,6.94
2023-03-16T14:05:40.721Z,6.87
2023-03-16T14:08:20.598Z,6.83
2023-03-16T14:10:59.830Z,6.79
2023-03-16T14:13:39.335Z,6.73
2023-03-16T14:16:17.753Z,6.64
2023-03-16T14:18:56.089Z,6.58
2023-03-16T14:21:30.874Z,6.55
2023-03-16T14:24:05.661Z,6.51
2023-03-16T14:26:45.229Z,6.46
2023-03-16T14:29:22.891Z,6.43
2023-03-16T14:31:56.004Z,6.42
2023-03-16T14:34:34.035Z,6.41
2023-03-16T14:37:11.863Z,6.36
2023-03-16T14:39:44.693Z,6.35
2023-03-16T14:42:25.888Z,6.35
2023-03-16T14:45:00.121Z,6.37
2023-03-16T14:47:38.637Z,6.37
2023-03-16T14:50:15.623Z,6.36
2023-03-16T14:52:48.531Z,6.34
2023-03-16T14:55:22.954Z,6.35
2023-03-16T14:57:55.703Z,6.34
2023-03-16T15:00:29.394Z,6.34
2023-03-16T15:03:08.328Z,6.33
2023-03-16T15:05:43.339Z,6.38
2023-03-16T15:08:20.200Z,6.45
2023-03-16T15:10:59.267Z,6.49
2023-03-16T15:13:53.328Z,6.54
2023-03-16T15:16:26.150Z,6.50
2023-03-16T15:18:58.494Z,6.46
2023-03-16T15:21:31.662Z,6.45
2023-03-16T15:24:04.115Z,6.45
2023-03-16T15:26:36.481Z,6.44
2023-03-16T15:29:14.655Z,6.42
2023-03-16T15:31:47.011Z,6.41
2023-03-16T15:34:19.327Z,6.41
2023-03-16T15:36:51.967Z,6.42
2023-03-16T15:39:28.067Z,6.41
2023-03-16T15:42:00.631Z,6.39
2023-03-16T15:44:33.250Z,6.38
2023-03-16T15:47:05.654Z,6.39
2023-03-16T15:49:47.082Z,6.39
2023-03-16T15:52:28.228Z,6.39
2023-03-16T15:55:07.884Z,6.40
2023-03-16T15:57:40.288Z,6.41
2023-03-16T16:00:28.716Z,6.42
2023-03-16T16:03:03.090Z,6.42
2023-03-16T16:05:36.609Z,6.43
2023-03-16T16:08:09.313Z,6.41
2023-03-16T16:10:43.237Z,6.39
2023-03-16T16:13:18.538Z,6.37
2023-03-16T16:15:51.485Z,6.34
2023-03-16T16:18:35.121Z,6.30
2023-03-16T16:21:09.701Z,6.27
2023-03-16T16:23:42.983Z,6.23
2023-03-16T16:26:27.944Z,6.19
2023-03-16T16:29:08.618Z,6.11
2023-03-16T16:31:41.074Z,6.06
2023-03-16T16:34:17.414Z,6.00
2023-03-16T16:36:50.228Z,5.93
2023-03-16T16:39:23.101Z,5.88
2023-03-16T16:41:57.183Z,5.82
2023-03-16T16:44:34.828Z,5.77
2023-03-16T16:47:18.858Z,5.72
2023-03-16T16:49:52.024Z,5.68
2023-03-16T16:52:24.652Z,5.65
2023-03-16T16:54:57.245Z,5.62
2023-03-16T16:57:30.455Z,5.58
2023-03-16T17:00:03.965Z,5.55
2023-03-16T17:02:47.460Z,5.53
2023-03-16T17:05:24.031Z,5.50
2023-03-16T17:07:56.709Z,5.47
2023-03-16T17:10:31.480Z,5.46
2023-03-16T17:13:05.016Z,5.45
2023-03-16T17:15:37.543Z,5.41
2023-03-16T17:18:15.379Z,5.39
2023-03-16T17:20:48.136Z,5.38
2023-03-16T17:23:31.262Z,5.38
2023-03-16T17:26:11.178Z,5.37
2023-03-16T17:28:49.258Z,5.36
2023-03-16T17:31:25.398Z,5.32
2023-03-16T17:33:59.205Z,5.26
2023-03-16T17:36:31.691Z,5.21
2023-03-16T17:39:04.186Z,5.18
2023-03-16T17:41:37.180Z,5.15
2023-03-16T17:44:15.332Z,5.13
2023-03-16T17:46:49.283Z,5.12
2023-03-16T17:49:24.258Z,5.08
2023-03-16T17:51:57.548Z,5.03
2023-03-16T17:54:29.920Z,5.00
2023-03-16T17:57:02.318Z,4.97
2023-03-16T17:59:36.444Z,4.93
2023-03-16T18:02:34.737Z,4.90
2023-03-16T18:05:13.105Z,4.88
2023-03-16T18:07:48.001Z,4.79
2023-03-16T18:10:23.194Z,4.73
2023-03-16T18:13:02.458Z,4.71
2023-03-16T18:15:38.598Z,4.69
2023-03-16T18:18:21.400Z,4.66
2023-03-16T18:20:56.985Z,4.63
2023-03-16T18:23:33.613Z,4.59
2023-03-16T18:26:07.307Z,4.50
2023-03-16T18:28:39.662Z,4.48
2023-03-16T18:31:22.080Z,4.45
2023-03-16T18:33:57.386Z,4.43
2023-03-16T18:36:33.361Z,4.41
2023-03-16T18:39:08.826Z,4.39
2023-03-16T18:41:41.829Z,4.39
2023-03-16T18:44:19.945Z,4.39
2023-03-16T18:46:55.068Z,4.39
2023-03-16T18:49:33.066Z,4.36
2023-03-16T18:52:13.682Z,4.34
2023-03-16T18:54:49.245Z,4.32
2023-03-16T18:57:23.612Z,4.31
2023-03-16T18:59:58.942Z,4.29
2023-03-16T19:02:34.655Z,4.25
2023-03-16T19:05:13.069Z,4.17
2023-03-16T19:07:48.230Z,4.17
2023-03-16T19:10:29.958Z,4.18
2023-03-16T19:13:02.986Z,4.19
2023-03-16T19:15:35.840Z,4.19
2023-03-16T19:18:10.383Z,4.19
2023-03-16T19:20:45.216Z,4.18
2023-03-16T19:23:25.925Z,4.17
2023-03-16T19:25:59.693Z,4.15
2023-03-16T19:28:36.642Z,4.13
2023-03-16T19:31:16.659Z,4.11
2023-03-16T19:33:49.859Z,4.08
2023-03-16T19:36:26.633Z,4.08
2023-03-16T19:38:59.310Z,4.09
2023-03-16T19:41:33.865Z,4.09
2023-03-16T19:44:15.363Z,4.08
2023-03-16T19:46:49.095Z,4.05
2023-03-16T19:49:24.375Z,4.00
2023-03-16T19:51:58.267Z,3.99
2023-03-16T19:54:33.538Z,3.96
2023-03-16T19:57:12.481Z,3.93
2023-03-16T19:59:49.744Z,3.93
2023-03-16T20:02:31.619Z,3.93
2023-03-16T20:05:04.024Z,3.92
2023-03-16T20:07:38.284Z,3.89
2023-03-16T20:10:19.283Z,3.87
2023-03-16T20:12:57.628Z,3.86
2023-03-16T20:15:34.491Z,3.83
2023-03-16T20:18:13.765Z,3.80
2023-03-16T20:20:47.363Z,3.77
2023-03-16T20:23:26.869Z,3.74
2023-03-16T20:26:03.883Z,3.73
2023-03-16T20:28:39.603Z,3.75
2023-03-16T20:31:20.948Z,3.75
2023-03-16T20:33:54.808Z,3.75
2023-03-16T20:36:28.173Z,3.73
2023-03-16T20:39:00.601Z,3.71
2023-03-16T20:41:34.121Z,3.69
2023-03-16T20:44:06.570Z,3.67
2023-03-16T20:46:41.470Z,3.65
2023-03-16T20:49:31.460Z,3.64
2023-03-16T20:52:04.058Z,3.62
2023-03-16T20:54:38.916Z,3.61
2023-03-16T20:57:17.761Z,3.60
2023-03-16T20:59:51.768Z,3.60
2023-03-16T21:02:29.997Z,3.58
2023-03-16T21:05:04.831Z,3.57
2023-03-16T21:07:37.154Z,3.57
2023-03-16T21:10:10.623Z,3.58
2023-03-16T21:12:46.249Z,3.56
2023-03-16T21:15:23.775Z,3.51
2023-03-16T21:18:01.345Z,3.46
2023-03-16T21:20:35.719Z,3.42
2023-03-16T21:23:15.901Z,3.38
2023-03-16T21:25:51.109Z,3.34
2023-03-16T21:28:22.088Z,3.31
2023-03-16T21:30:56.220Z,3.26
2023-03-16T21:33:31.782Z,3.27
2023-03-16T21:36:06.274Z,3.29
2023-03-16T21:38:39.007Z,3.31
2023-03-16T21:41:11.728Z,3.28
2023-03-16T21:43:44.502Z,3.25
2023-03-16T21:46:20.105Z,3.24
2023-03-16T21:48:54.091Z,3.24
2023-03-16T21:51:31.388Z,3.25
2023-03-16T21:54:04.020Z,3.26
2023-03-16T21:56:36.266Z,3.27
2023-03-16T21:59:09.126Z,3.29
2023-03-16T22:02:00.411Z,3.31
2023-03-16T22:04:33.834Z,3.31
2023-03-16T22:07:11.603Z,3.30
2023-03-16T22:09:44.072Z,3.30
2023-03-16T22:12:17.170Z,3.29
2023-03-16T22:14:49.548Z,3.25
2023-03-16T22:17:23.832Z,3.19
2023-03-16T22:19:56.230Z,3.14
2023-03-16T22:22:36.424Z,3.13
2023-03-16T22:25:17.085Z,3.13
2023-03-16T22:27:50.025Z,3.14
2023-03-16T22:30:24.856Z,3.12
2023-03-16T22:32:59.412Z,3.11
2023-03-16T22:35:35.823Z,3.08
2023-03-16T22:38:13.295Z,3.04
2023-03-16T22:40:45.925Z,3.04
2023-03-16T22:43:23.794Z,3.08
2023-03-16T22:45:57.030Z,3.07
2023-03-16T22:48:31.886Z,3.06
2023-03-16T22:51:06.397Z,3.03
2023-03-16T22:53:41.057Z,3.03
2023-03-16T22:56:13.683Z,3.05
2023-03-16T22:58:49.746Z,3.05
2023-03-16T23:01:24.005Z,3.04
2023-03-16T23:03:55.751Z,3.00
2023-03-16T23:06:31.520Z,2.97
2023-03-16T23:09:03.933Z,2.98
2023-03-16T23:11:37.941Z,2.99
2023-03-16T23:14:15.181Z,2.99
2023-03-16T23:16:50.324Z,3.00
2023-03-16T23:19:29.865Z,2.98
2023-03-16T23:22:05.023Z,2.92
2023-03-16T23:24:37.890Z,2.91
2023-03-16T23:27:18.584Z,2.91
2023-03-16T23:29:51.171Z,2.88
2023-03-16T23:32:23.387Z,2.87
2023-03-16T23:34:55.581Z,2.86
2023-03-16T23:37:27.900Z,2.85
2023-03-16T23:40:00.173Z,2.85
2023-03-16T23:42:32.901Z,2.86
2023-03-16T23:45:13.480Z,2.86
2023-03-16T23:47:48.116Z,2.83
2023-03-16T23:50:26.940Z,2.81
2023-03-16T23:52:59.487Z,2.78
2023-03-16T23:55:31.791Z,2.76
2023-03-16T23:58:04.236Z,2.74
